Time;durP1;ratioP1;P1;durP2;ratioP2;P2;SDS_P1;SDS_P2;PMS_P1;PMS_P2;Temp;Humidity;BMP_temperature;BMP_pressure;BME280_temperature;BME280_humidity;BME280_pressure;Samples;Min_cycle;Max_cycle;Signal;HPM_P1;HPM_P2
2023/08/31 00:00:35;;;;;;;1.83;1.60;;;;;;;16.62;77.71;94949.91;6273691;22;20200;-85
2023/08/31 00:03:02;;;;;;;2.58;1.70;;;;;;;16.55;77.67;94953.41;6274789;22;20204;-84
2023/08/31 00:05:30;;;;;;;2.55;1.60;;;;;;;16.59;77.69;94964.16;6274649;22;20191;-85
2023/08/31 00:07:56;;;;;;;2.08;1.88;;;;;;;16.61;77.56;94967.31;6274617;22;20172;-85
2023/08/31 00:10:23;;;;;;;1.85;1.50;;;;;;;16.60;77.40;94952.75;6274673;22;20192;-85
2023/08/31 00:12:50;;;;;;;1.90;1.80;;;;;;;16.60;77.26;94947.53;6275239;22;20173;-85
2023/08/31 00:15:16;;;;;;;2.78;1.73;;;;;;;16.59;77.12;94946.75;6274442;22;20234;-85
2023/08/31 00:17:43;;;;;;;1.70;1.60;;;;;;;16.58;76.95;94944.38;6273751;22;20176;-86
2023/08/31 00:20:11;;;;;;;2.70;1.80;;;;;;;16.54;76.82;94943.28;6276177;22;20231;-85
2023/08/31 00:22:39;;;;;;;1.63;1.52;;;;;;;16.51;76.71;94941.13;6276339;22;20235;-85
2023/08/31 00:25:08;;;;;;;1.73;1.63;;;;;;;16.50;76.74;94944.75;6275684;22;20176;-86
2023/08/31 00:27:34;;;;;;;1.73;1.63;;;;;;;16.49;76.64;94930.97;6276163;22;20172;-85
2023/08/31 00:30:02;;;;;;;2.42;1.80;;;;;;;16.46;76.42;94935.81;6276268;22;20617;-87
2023/08/31 00:32:28;;;;;;;1.70;1.60;;;;;;;16.43;76.72;94941.47;6276123;22;20172;-83
2023/08/31 00:34:55;;;;;;;5.60;4.03;;;;;;;16.40;76.98;94954.91;6275320;22;20492;-83
2023/08/31 00:37:21;;;;;;;9.77;8.88;;;;;;;16.42;76.36;94935.50;6276052;22;20183;-84
2023/08/31 00:39:52;;;;;;;3.58;2.97;;;;;;;16.34;76.22;94930.66;6275522;22;20199;-84
2023/08/31 00:42:18;;;;;;;2.03;1.70;;;;;;;16.31;76.13;94925.91;6275876;22;20186;-85
2023/08/31 00:44:46;;;;;;;2.30;1.55;;;;;;;16.31;75.88;94927.72;6274824;22;20176;-84
2023/08/31 00:47:13;;;;;;;1.77;1.67;;;;;;;16.33;76.11;94928.28;6275922;22;20180;-85
2023/08/31 00:49:40;;;;;;;1.85;1.75;;;;;;;16.32;75.62;94921.50;6275656;22;20192;-85
2023/08/31 00:52:08;;;;;;;1.70;1.60;;;;;;;16.36;75.23;94917.41;6275186;22;20172;-86
2023/08/31 00:54:35;;;;;;;3.95;1.90;;;;;;;16.36;75.46;94927.81;6275374;22;20180;-86
2023/08/31 00:57:03;;;;;;;1.80;1.70;;;;;;;16.29;76.34;94943.53;6274913;22;20188;-86
2023/08/31 00:59:30;;;;;;;2.17;1.98;;;;;;;16.32;76.72;94960.47;6276010;22;20196;-85
2023/08/31 01:02:07;;;;;;;2.03;1.90;;;;;;;16.33;75.77;94933.47;6275710;22;20520;-85
2023/08/31 01:04:42;;;;;;;2.03;1.92;;;;;;;16.34;75.22;94920.28;6275641;22;20288;-87
2023/08/31 01:07:20;;;;;;;1.77;1.67;;;;;;;16.34;75.32;94922.06;6275494;22;20187;-85
2023/08/31 01:09:56;;;;;;;2.00;1.80;;;;;;;16.34;75.66;94927.28;6275919;22;20572;-84
2023/08/31 01:12:37;;;;;;;2.28;1.90;;;;;;;16.27;75.25;94911.00;6276419;22;20152;-85
2023/08/31 01:15:07;;;;;;;2.10;2.00;;;;;;;16.29;75.12;94899.38;6276419;22;20163;-87
2023/08/31 01:17:37;;;;;;;2.00;1.80;;;;;;;16.29;75.20;94903.78;6275608;22;20511;-87
2023/08/31 01:20:06;;;;;;;3.53;1.90;;;;;;;16.28;76.46;94931.56;6275709;22;20520;-85
2023/08/31 01:22:40;;;;;;;3.20;1.83;;;;;;;16.23;75.83;94924.44;6274581;22;20301;-84
2023/08/31 01:25:09;;;;;;;1.92;1.80;;;;;;;16.19;75.92;94927.72;6275256;22;20180;-85
2023/08/31 01:27:36;;;;;;;3.25;1.85;;;;;;;16.19;75.54;94925.91;6275175;22;20195;-85
2023/08/31 01:30:04;;;;;;;1.90;1.70;;;;;;;16.14;75.91;94936.22;6275798;22;20504;-86
2023/08/31 01:32:30;;;;;;;2.42;2.00;;;;;;;16.11;76.50;94947.03;6275699;22;20186;-85
2023/08/31 01:34:58;;;;;;;1.92;1.75;;;;;;;16.14;75.98;94941.41;6276492;22;20255;-85
2023/08/31 01:37:32;;;;;;;1.80;1.70;;;;;;;16.20;76.00;94937.09;6274631;22;20200;-85
2023/08/31 01:40:05;;;;;;;2.00;1.80;;;;;;;16.18;75.72;94933.94;6275197;22;20196;-85
2023/08/31 01:42:34;;;;;;;1.70;1.60;;;;;;;16.19;76.28;94943.28;6275872;22;20200;-84
2023/08/31 01:45:02;;;;;;;2.28;2.13;;;;;;;16.20;76.13;94939.69;6275165;22;20233;-86
2023/08/31 01:47:29;;;;;;;1.85;1.75;;;;;;;16.18;76.07;94942.50;6276437;22;20222;-86
2023/08/31 01:49:56;;;;;;;4.13;1.90;;;;;;;16.13;77.34;94965.78;6275393;22;20196;-85
2023/08/31 01:52:22;;;;;;;3.03;1.90;;;;;;;16.18;77.23;94967.69;6275033;22;20179;-86
2023/08/31 01:54:49;;;;;;;1.85;1.75;;;;;;;16.15;77.55;94979.34;6274444;22;20187;-86
2023/08/31 01:57:15;;;;;;;1.98;1.88;;;;;;;16.18;77.38;94976.28;6274138;22;20187;-85
2023/08/31 01:59:43;;;;;;;3.10;1.98;;;;;;;16.25;77.22;94983.97;6275201;22;20200;-86
2023/08/31 02:02:10;;;;;;;2.10;1.90;;;;;;;16.27;77.56;94997.53;6273601;22;20526;-85
2023/08/31 02:04:36;;;;;;;2.50;2.10;;;;;;;16.21;77.77;94999.19;6275312;22;20179;-86
2023/08/31 02:07:03;;;;;;;2.53;1.92;;;;;;;16.23;77.75;95004.97;6275232;22;20251;-84
2023/08/31 02:09:29;;;;;;;2.42;2.05;;;;;;;16.26;77.65;95003.72;6274842;22;20200;-86
2023/08/31 02:11:56;;;;;;;2.95;1.70;;;;;;;16.27;77.97;95014.91;6273883;22;20173;-84
2023/08/31 02:14:23;;;;;;;2.05;1.90;;;;;;;16.27;77.89;95017.50;6274794;22;20183;-85
2023/08/31 02:16:54;;;;;;;1.92;1.83;;;;;;;16.29;77.61;95018.06;6274233;22;20194;-83
2023/08/31 02:19:20;;;;;;;1.92;1.83;;;;;;;16.07;78.01;95029.00;6275328;22;20292;-86
2023/08/31 02:21:46;;;;;;;4.65;2.20;;;;;;;16.10;78.17;95035.56;6275264;22;20195;-85
2023/08/31 02:24:13;;;;;;;2.38;1.98;;;;;;;16.08;78.58;95042.78;6276193;22;20180;-84
2023/08/31 02:26:39;;;;;;;1.95;1.85;;;;;;;16.09;78.64;95062.56;6274601;22;20172;-85
2023/08/31 02:29:06;;;;;;;2.38;2.17;;;;;;;16.07;78.85;95078.34;6275931;22;20504;-85
2023/08/31 02:31:32;;;;;;;3.05;2.20;;;;;;;16.06;79.79;95101.94;6274687;22;20168;-85
2023/08/31 02:34:00;;;;;;;2.50;2.30;;;;;;;16.00;84.17;95191.91;6274598;22;20172;-85
2023/08/31 02:36:29;;;;;;;2.58;2.38;;;;;;;15.98;87.83;95260.66;6274108;22;20183;-84
2023/08/31 02:38:57;;;;;;;2.70;2.42;;;;;;;16.02;89.41;95282.56;6274252;22;20203;-85
2023/08/31 02:41:23;;;;;;;2.95;2.70;;;;;;;15.99;91.51;95317.56;6273871;22;20694;-84
2023/08/31 02:43:51;;;;;;;2.80;2.53;;;;;;;15.85;94.61;95348.06;6274019;22;20180;-84
2023/08/31 02:46:17;;;;;;;2.92;2.72;;;;;;;15.84;95.44;95353.47;6275995;22;20176;-87
2023/08/31 02:48:47;;;;;;;3.65;3.17;;;;;;;15.83;97.06;95367.47;6276973;22;20199;-85
2023/08/31 02:51:15;;;;;;;4.30;3.03;;;;;;;15.79;98.40;95381.88;6278180;22;20167;-84
2023/08/31 02:53:41;;;;;;;4.57;2.90;;;;;;;15.85;97.05;95381.81;6277479;22;20173;-86
2023/08/31 02:56:08;;;;;;;3.60;3.30;;;;;;;15.93;96.38;95380.75;6276863;22;20175;-84
2023/08/31 02:58:34;;;;;;;3.58;3.28;;;;;;;15.89;96.95;95380.38;6276396;22;20535;-85
2023/08/31 03:01:11;;;;;;;3.22;2.92;;;;;;;15.97;96.30;95365.56;6278057;22;20196;-87
2023/08/31 03:03:37;;;;;;;4.43;2.80;;;;;;;15.94;96.86;95360.78;6277045;22;20188;-85
2023/08/31 03:06:04;;;;;;;3.53;3.22;;;;;;;15.92;98.09;95388.75;6277666;22;20176;-85
2023/08/31 03:08:32;;;;;;;3.58;3.28;;;;;;;15.87;98.09;95379.00;6277292;22;20187;-85
2023/08/31 03:10:58;;;;;;;3.10;2.90;;;;;;;15.95;96.35;95360.56;6277697;22;20176;-85
2023/08/31 03:13:26;;;;;;;3.70;3.30;;;;;;;15.94;97.02;95368.56;6276207;22;20523;-85
2023/08/31 03:15:52;;;;;;;3.40;3.05;;;;;;;15.92;97.73;95378.38;6275103;22;20172;-86
2023/08/31 03:18:19;;;;;;;4.00;3.60;;;;;;;15.98;97.11;95364.50;6274251;22;20647;-85
2023/08/31 03:20:46;;;;;;;3.22;2.85;;;;;;;15.98;97.05;95365.31;6275690;22;20726;-87
2023/08/31 03:23:12;;;;;;;3.28;2.97;;;;;;;15.96;97.54;95375.16;6276577;22;20172;-87
2023/08/31 03:25:40;;;;;;;3.20;2.90;;;;;;;15.89;96.92;95379.59;6276757;22;20179;-86
2023/08/31 03:28:06;;;;;;;2.90;2.70;;;;;;;15.86;96.55;95370.44;6280754;22;20613;-84
2023/08/31 03:30:33;;;;;;;4.25;3.17;;;;;;;15.79;98.65;95395.66;6278583;22;20200;-86
2023/08/31 03:32:59;;;;;;;3.30;3.00;;;;;;;15.82;98.40;95390.03;6278734;22;20168;-88
2023/08/31 03:35:28;;;;;;;2.70;2.50;;;;;;;15.83;97.56;95372.66;6278167;22;20179;-87
2023/08/31 03:37:55;;;;;;;3.15;2.70;;;;;;;15.87;96.82;95369.41;6277600;22;20520;-86
2023/08/31 03:40:22;;;;;;;2.70;2.50;;;;;;;15.82;96.94;95382.25;6277434;22;20202;-87
2023/08/31 03:42:50;;;;;;;2.58;2.38;;;;;;;15.78;96.92;95378.47;6277845;22;20231;-87
2023/08/31 03:45:22;;;;;;;2.88;2.42;;;;;;;15.76;96.35;95383.13;6276639;22;20263;-86
2023/08/31 03:47:49;;;;;;;2.25;2.10;;;;;;;15.73;96.89;95393.13;6277509;22;20160;-87
2023/08/31 03:50:15;;;;;;;3.35;2.50;;;;;;;15.78;96.53;95395.84;6278082;22;20196;-87
2023/08/31 03:52:42;;;;;;;2.53;2.17;;;;;;;15.73;96.52;95387.94;6278722;22;20533;-85
2023/08/31 03:55:08;;;;;;;2.60;2.40;;;;;;;15.72;96.07;95386.34;6278128;22;20183;-88
2023/08/31 03:57:35;;;;;;;2.53;2.33;;;;;;;15.71;96.40;95392.53;6278518;22;20194;-86
2023/08/31 04:00:08;;;;;;;2.42;2.22;;;;;;;15.74;96.21;95392.13;6278359;22;20196;-87
2023/08/31 04:02:35;;;;;;;2.42;2.22;;;;;;;15.75;96.55;95398.91;6277521;22;20195;-86
2023/08/31 04:05:01;;;;;;;3.03;2.33;;;;;;;15.69;97.72;95413.50;6278283;22;20259;-86
2023/08/31 04:07:27;;;;;;;2.08;1.98;;;;;;;15.71;96.56;95401.13;6278782;22;20176;-86
2023/08/31 04:09:54;;;;;;;2.78;2.33;;;;;;;15.77;96.35;95396.88;6278022;22;20362;-87
2023/08/31 04:12:21;;;;;;;2.70;2.50;;;;;;;15.72;96.12;95392.34;6276618;22;20203;-86
2023/08/31 04:14:47;;;;;;;2.40;2.20;;;;;;;15.75;96.12;95393.72;6277127;22;20176;-86
2023/08/31 04:17:15;;;;;;;2.60;2.38;;;;;;;15.71;96.27;95395.13;6277138;22;20176;-86
2023/08/31 04:19:41;;;;;;;2.45;2.25;;;;;;;15.73;96.08;95403.50;6277526;22;20196;-86
2023/08/31 04:22:08;;;;;;;2.78;2.58;;;;;;;15.75;95.92;95410.06;6276846;22;20196;-86
2023/08/31 04:24:34;;;;;;;2.55;2.35;;;;;;;15.70;97.12;95416.91;6276969;22;20203;-85
2023/08/31 04:27:00;;;;;;;2.78;2.40;;;;;;;15.73;97.13;95424.28;6276760;22;20183;-87
2023/08/31 04:29:27;;;;;;;2.60;2.40;;;;;;;15.68;97.28;95424.09;6276040;22;20204;-85
2023/08/31 04:31:54;;;;;;;2.65;2.45;;;;;;;15.70;96.93;95425.50;6276427;22;20173;-86
2023/08/31 04:34:22;;;;;;;2.92;2.50;;;;;;;15.67;96.80;95418.13;6273846;22;20169;-86
2023/08/31 04:36:48;;;;;;;2.72;2.38;;;;;;;15.67;96.93;95435.50;6272670;22;20206;-88
2023/08/31 04:39:15;;;;;;;2.58;2.38;;;;;;;15.70;97.01;95448.06;6273961;22;20200;-86
2023/08/31 04:41:41;;;;;;;4.53;2.40;;;;;;;15.66;96.93;95439.88;6274015;22;20196;-86
2023/08/31 04:44:07;;;;;;;2.50;2.30;;;;;;;15.71;96.52;95447.84;6274623;22;20211;-87
2023/08/31 04:46:34;;;;;;;3.63;2.38;;;;;;;15.66;96.99;95452.06;6273500;22;20213;-87
2023/08/31 04:49:00;;;;;;;3.88;2.50;;;;;;;15.64;97.27;95460.06;6274149;22;20196;-87
2023/08/31 04:51:39;;;;;;;2.97;2.40;;;;;;;15.65;97.00;95455.66;6273886;22;20590;-88
2023/08/31 04:54:06;;;;;;;3.25;2.78;;;;;;;15.61;97.12;95455.28;6273847;22;20187;-86
2023/08/31 04:56:33;;;;;;;3.03;2.83;;;;;;;15.62;97.55;95466.47;6273567;22;20190;-87
2023/08/31 04:59:00;;;;;;;2.88;2.65;;;;;;;15.64;98.79;95490.41;6271982;22;20199;-86
2023/08/31 05:01:27;;;;;;;2.92;2.63;;;;;;;15.64;98.16;95477.44;6273341;22;20179;-86
2023/08/31 05:03:53;;;;;;;3.60;3.30;;;;;;;15.61;98.36;95485.63;6273626;22;20183;-86
2023/08/31 05:06:20;;;;;;;3.72;2.60;;;;;;;15.67;97.58;95484.81;6274120;22;20655;-86
2023/08/31 05:08:48;;;;;;;3.20;2.70;;;;;;;15.67;97.05;95464.84;6273661;22;20196;-86
2023/08/31 05:11:14;;;;;;;4.38;2.60;;;;;;;15.68;97.14;95471.63;6275093;22;20183;-85
2023/08/31 05:13:42;;;;;;;3.55;2.70;;;;;;;15.65;97.24;95482.41;6275055;22;20507;-86
2023/08/31 05:16:08;;;;;;;3.35;2.50;;;;;;;15.68;97.15;95476.81;6275374;22;20176;-87
2023/08/31 05:18:35;;;;;;;2.53;2.30;;;;;;;15.71;97.46;95481.59;6274321;22;20180;-86
2023/08/31 05:21:02;;;;;;;3.35;2.50;;;;;;;15.71;98.14;95491.19;6274870;22;20172;-87
2023/08/31 05:23:29;;;;;;;3.17;2.58;;;;;;;15.77;97.30;95482.56;6273875;22;20570;-85
2023/08/31 05:25:57;;;;;;;3.95;2.50;;;;;;;15.81;97.32;95486.28;6273403;22;20708;-85
2023/08/31 05:28:24;;;;;;;3.42;2.35;;;;;;;15.88;96.78;95476.66;6273362;22;20210;-85
2023/08/31 05:30:51;;;;;;;2.53;2.33;;;;;;;15.91;95.73;95472.84;6273831;22;20179;-86
2023/08/31 05:33:18;;;;;;;3.10;2.40;;;;;;;15.89;95.63;95452.28;6273840;22;20207;-85
2023/08/31 05:35:44;;;;;;;5.07;2.75;;;;;;;15.93;95.72;95460.47;6274010;22;20179;-86
2023/08/31 05:38:14;;;;;;;4.63;2.65;;;;;;;15.95;95.66;95472.22;6272799;22;20173;-85
2023/08/31 05:40:45;;;;;;;3.72;2.83;;;;;;;15.98;95.63;95479.56;6271921;22;20386;-87
2023/08/31 05:43:13;;;;;;;3.25;2.45;;;;;;;15.98;96.12;95486.56;6273038;22;20180;-87
2023/08/31 05:45:39;;;;;;;3.22;2.92;;;;;;;16.01;95.68;95475.75;6273216;22;20226;-87
2023/08/31 05:48:06;;;;;;;2.47;2.28;;;;;;;15.96;96.65;95493.81;6273482;22;20176;-86
2023/08/31 05:50:33;;;;;;;2.90;2.60;;;;;;;15.98;97.00;95509.94;6272850;22;20230;-86
2023/08/31 05:52:59;;;;;;;3.78;2.60;;;;;;;16.00;96.90;95505.34;6273263;22;20206;-86
2023/08/31 05:55:26;;;;;;;2.90;2.60;;;;;;;15.99;96.48;95501.13;6274917;22;20177;-88
2023/08/31 05:57:52;;;;;;;2.88;2.67;;;;;;;15.99;96.75;95504.53;6272905;22;20241;-86
2023/08/31 06:00:20;;;;;;;2.75;2.40;;;;;;;16.06;96.11;95494.09;6272938;22;20215;-87
2023/08/31 06:02:47;;;;;;;3.53;2.75;;;;;;;16.05;96.19;95503.69;6273031;22;20200;-87
2023/08/31 06:05:16;;;;;;;3.03;2.60;;;;;;;16.02;95.66;95504.13;6272800;22;20390;-85
2023/08/31 06:07:42;;;;;;;3.00;2.70;;;;;;;16.09;94.73;95494.47;6274309;22;20190;-86
2023/08/31 06:10:09;;;;;;;2.80;2.60;;;;;;;16.17;95.42;95504.59;6273762;22;20192;-86
2023/08/31 06:12:36;;;;;;;2.78;2.50;;;;;;;16.21;95.43;95510.16;6273789;22;20595;-86
2023/08/31 06:15:03;;;;;;;3.25;2.45;;;;;;;16.21;94.97;95503.16;6274341;22;20183;-87
2023/08/31 06:17:31;;;;;;;2.63;2.42;;;;;;;16.29;94.99;95499.50;6273244;22;20172;-87
2023/08/31 06:19:57;;;;;;;2.58;2.38;;;;;;;16.34;94.37;95498.88;6273138;22;20282;-87
2023/08/31 06:22:24;;;;;;;3.00;2.70;;;;;;;16.36;93.93;95479.44;6274959;22;20192;-87
2023/08/31 06:24:51;;;;;;;2.90;2.60;;;;;;;16.38;92.94;95474.81;6274003;22;20176;-86
2023/08/31 06:27:18;;;;;;;5.50;3.22;;;;;;;16.41;92.74;95473.59;6274434;22;20172;-86
2023/08/31 06:29:44;;;;;;;3.90;2.50;;;;;;;16.38;91.96;95461.81;6273669;22;20203;-86
2023/08/31 06:32:11;;;;;;;2.90;2.70;;;;;;;16.41;92.21;95463.19;6272851;22;20168;-86
2023/08/31 06:34:39;;;;;;;4.03;2.67;;;;;;;16.44;92.01;95467.97;6272692;22;20314;-86
2023/08/31 06:37:05;;;;;;;2.78;2.55;;;;;;;16.37;92.50;95478.44;6272669;22;20176;-86
2023/08/31 06:39:32;;;;;;;5.90;5.30;;;;;;;16.35;93.03;95488.25;6272940;22;20200;-88
2023/08/31 06:41:59;;;;;;;21.08;19.08;;;;;;;16.32;93.16;95487.91;6271893;22;20264;-87
2023/08/31 06:44:25;;;;;;;3.38;3.08;;;;;;;16.23;93.72;95501.16;6272227;22;20172;-86
2023/08/31 06:46:51;;;;;;;6.40;2.72;;;;;;;16.28;93.96;95502.31;6272387;22;20172;-85
2023/08/31 06:49:18;;;;;;;3.03;2.75;;;;;;;16.36;94.08;95510.63;6272122;22;20195;-86
2023/08/31 06:51:46;;;;;;;2.90;2.50;;;;;;;16.42;93.70;95499.38;6271161;22;20183;-87
2023/08/31 06:54:12;;;;;;;2.97;2.78;;;;;;;16.47;93.90;95506.53;6272099;22;20168;-86
2023/08/31 06:56:39;;;;;;;2.65;2.45;;;;;;;16.50;93.62;95506.09;6272012;22;20572;-86
2023/08/31 06:59:05;;;;;;;3.20;2.72;;;;;;;16.53;94.74;95523.88;6271319;22;20595;-87
2023/08/31 07:01:32;;;;;;;2.72;2.45;;;;;;;16.50;94.82;95535.50;6272247;22;20727;-86
2023/08/31 07:03:59;;;;;;;2.20;2.10;;;;;;;16.56;93.42;95520.81;6271899;22;20192;-86
2023/08/31 07:06:26;;;;;;;2.33;1.95;;;;;;;16.56;92.02;95494.81;6271752;22;20171;-86
2023/08/31 07:08:53;;;;;;;2.10;2.00;;;;;;;16.59;92.15;95497.00;6271576;22;20719;-86
2023/08/31 07:11:20;;;;;;;2.40;2.20;;;;;;;16.61;92.21;95496.78;6272085;22;20176;-86
2023/08/31 07:13:46;;;;;;;2.30;1.90;;;;;;;16.64;91.86;95486.00;6271485;22;20173;-86
2023/08/31 07:16:12;;;;;;;2.30;2.08;;;;;;;16.66;90.56;95476.97;6271529;22;20176;-86
2023/08/31 07:18:39;;;;;;;2.33;2.13;;;;;;;16.63;90.42;95472.19;6270973;22;20172;-86
2023/08/31 07:21:05;;;;;;;2.45;2.15;;;;;;;16.67;90.28;95475.16;6271743;22;20198;-85
2023/08/31 07:23:32;;;;;;;2.22;2.10;;;;;;;16.76;90.49;95479.06;6271301;22;20196;-86
2023/08/31 07:26:01;;;;;;;1.90;1.80;;;;;;;16.90;90.48;95496.91;6271308;22;20213;-87
2023/08/31 07:28:27;;;;;;;2.10;2.00;;;;;;;16.93;90.11;95486.03;6271302;22;20865;-86
2023/08/31 07:31:01;;;;;;;2.95;2.25;;;;;;;16.99;89.52;95476.59;6272052;22;20175;-86
2023/08/31 07:33:28;;;;;;;2.20;1.95;;;;;;;17.00;88.90;95474.78;6272922;22;20164;-86
2023/08/31 07:35:54;;;;;;;2.75;2.03;;;;;;;17.04;87.80;95449.94;6272301;22;20187;-86
2023/08/31 07:38:21;;;;;;;2.15;1.90;;;;;;;17.04;88.03;95460.31;6272179;22;20181;-86
2023/08/31 07:40:47;;;;;;;4.75;2.17;;;;;;;17.01;87.55;95461.56;6271031;22;20204;-86
2023/08/31 07:43:15;;;;;;;2.30;1.98;;;;;;;16.92;86.89;95455.88;6271581;22;20199;-87
2023/08/31 07:45:41;;;;;;;2.10;1.95;;;;;;;16.81;86.81;95445.41;6271861;22;20550;-86
2023/08/31 07:48:08;;;;;;;1.98;1.88;;;;;;;16.78;87.62;95454.41;6271755;22;20176;-86
2023/08/31 07:50:35;;;;;;;3.65;2.20;;;;;;;16.79;88.17;95471.63;6271652;22;20196;-86
2023/08/31 07:53:01;;;;;;;2.75;1.80;;;;;;;16.90;87.60;95452.69;6273309;22;20173;-86
2023/08/31 07:55:28;;;;;;;4.15;2.13;;;;;;;17.03;86.73;95436.13;6273401;22;20180;-86
2023/08/31 07:57:54;;;;;;;2.25;2.10;;;;;;;17.10;85.18;95416.03;6271524;22;20591;-87
2023/08/31 08:00:22;;;;;;;2.63;2.28;;;;;;;17.13;84.63;95409.56;6271925;22;20203;-86
2023/08/31 08:02:48;;;;;;;4.82;3.15;;;;;;;17.13;82.82;95383.53;6272345;22;20196;-86
2023/08/31 08:05:15;;;;;;;2.67;2.15;;;;;;;17.14;80.02;95310.47;6271625;22;20179;-87
2023/08/31 08:07:42;;;;;;;4.07;2.38;;;;;;;17.14;77.32;95244.66;6273111;22;20511;-88
2023/08/31 08:10:09;;;;;;;1.95;1.70;;;;;;;17.35;76.94;95244.09;6272152;22;20196;-85
2023/08/31 08:12:39;;;;;;;5.20;1.80;;;;;;;17.52;75.45;95218.16;6273039;22;20511;-86
2023/08/31 08:15:07;;;;;;;4.70;2.08;;;;;;;17.60;75.90;95238.66;6273756;22;20226;-87
2023/08/31 08:17:35;;;;;;;5.15;2.05;;;;;;;17.64;77.29;95268.47;6272467;22;20180;-87
2023/08/31 08:20:02;;;;;;;2.67;2.47;;;;;;;17.47;77.70;95291.75;6273750;22;20325;-86
2023/08/31 08:22:29;;;;;;;2.90;2.33;;;;;;;17.35;76.39;95264.13;6273110;22;20242;-86
2023/08/31 08:24:55;;;;;;;3.05;1.90;;;;;;;17.23;76.67;95267.53;6273395;22;20176;-86
2023/08/31 08:27:22;;;;;;;5.65;2.15;;;;;;;17.16;78.05;95307.66;6273415;22;20171;-86
2023/08/31 08:29:49;;;;;;;3.03;2.10;;;;;;;17.10;78.01;95311.97;6272129;22;20885;-87
2023/08/31 08:32:15;;;;;;;3.83;2.22;;;;;;;17.04;77.33;95297.25;6272956;22;20176;-86
2023/08/31 08:34:43;;;;;;;2.42;1.90;;;;;;;17.02;76.34;95281.06;6272927;22;20183;-87
2023/08/31 08:37:10;;;;;;;4.72;2.17;;;;;;;17.08;76.65;95287.97;6273016;22;20204;-86
2023/08/31 08:39:36;;;;;;;2.28;1.75;;;;;;;17.17;76.28;95289.22;6273296;22;20565;-87
2023/08/31 08:42:05;;;;;;;2.00;1.80;;;;;;;17.21;76.05;95277.34;6273523;22;20172;-86
2023/08/31 08:44:33;;;;;;;4.32;1.95;;;;;;;17.21;75.43;95268.75;6272937;22;20574;-86
2023/08/31 08:47:01;;;;;;;3.03;2.00;;;;;;;17.16;75.45;95268.63;6273064;22;20497;-86
2023/08/31 08:49:30;;;;;;;2.40;1.88;;;;;;;17.06;73.95;95234.59;6273240;22;20921;-86
2023/08/31 08:51:59;;;;;;;4.18;2.25;;;;;;;17.09;73.67;95221.94;6273092;22;20180;-87
2023/08/31 08:54:26;;;;;;;2.60;2.13;;;;;;;17.23;73.55;95204.28;6272994;22;20194;-87
2023/08/31 08:56:53;;;;;;;2.83;1.90;;;;;;;17.53;72.71;95185.91;6272789;22;20188;-87
2023/08/31 08:59:20;;;;;;;3.55;1.77;;;;;;;17.64;70.10;95120.06;6273618;22;20531;-86
2023/08/31 09:01:47;;;;;;;3.05;1.83;;;;;;;17.69;69.94;95120.16;6273470;22;20183;-86
2023/08/31 09:04:14;;;;;;;2.55;1.65;;;;;;;17.68;69.84;95109.97;6273955;22;20200;-88
2023/08/31 09:06:41;;;;;;;2.30;1.70;;;;;;;17.67;70.20;95124.81;6273092;22;20223;-86
2023/08/31 09:09:10;;;;;;;2.60;1.90;;;;;;;17.58;70.45;95145.16;6273970;22;20196;-86
2023/08/31 09:11:37;;;;;;;4.03;1.92;;;;;;;17.40;70.36;95136.72;6273913;22;20175;-85
2023/08/31 09:14:15;;;;;;;2.28;2.00;;;;;;;17.35;70.52;95153.00;6273511;22;20632;-86
2023/08/31 09:16:45;;;;;;;3.17;2.00;;;;;;;17.36;71.66;95191.03;6272563;22;20156;-86
2023/08/31 09:19:19;;;;;;;2.28;1.90;;;;;;;17.24;71.09;95167.63;6272980;22;20188;-86
2023/08/31 09:21:45;;;;;;;2.38;1.70;;;;;;;17.18;70.78;95178.94;6273257;22;20175;-85
2023/08/31 09:24:14;;;;;;;9.00;8.10;;;;;;;17.21;71.49;95190.72;6273223;22;20192;-86
2023/08/31 09:26:40;;;;;;;2.83;2.00;;;;;;;17.13;71.67;95189.22;6272510;22;20647;-87
2023/08/31 09:29:07;;;;;;;2.17;1.70;;;;;;;17.18;71.83;95204.94;6273067;22;20203;-86
2023/08/31 09:31:34;;;;;;;1.70;1.60;;;;;;;17.16;72.01;95206.19;6272496;22;20581;-86
2023/08/31 09:34:03;;;;;;;1.50;1.40;;;;;;;17.44;71.64;95198.50;6272538;22;20794;-86
2023/08/31 09:36:29;;;;;;;2.10;1.90;;;;;;;17.58;71.47;95181.59;6272910;22;20259;-85
2023/08/31 09:38:58;;;;;;;2.95;1.92;;;;;;;17.73;71.78;95198.56;6273023;22;20195;-86
2023/08/31 09:41:26;;;;;;;2.22;1.70;;;;;;;17.87;70.39;95172.06;6272792;22;20179;-86
2023/08/31 09:43:52;;;;;;;1.98;1.70;;;;;;;17.90;69.86;95140.31;6272436;22;20259;-86
2023/08/31 09:46:20;;;;;;;2.10;1.60;;;;;;;18.08;69.74;95139.38;6273183;22;20172;-86
2023/08/31 09:48:48;;;;;;;2.80;2.03;;;;;;;18.10;68.72;95118.25;6272762;22;20176;-86
2023/08/31 09:51:17;;;;;;;1.50;1.40;;;;;;;17.99;68.24;95085.25;6272943;22;20484;-86
2023/08/31 09:53:46;;;;;;;3.17;1.55;;;;;;;17.94;69.17;95120.59;6273267;22;20231;-86
2023/08/31 09:56:19;;;;;;;1.73;1.63;;;;;;;17.82;69.57;95132.09;6273107;22;20183;-86
2023/08/31 09:58:47;;;;;;;2.28;1.80;;;;;;;17.74;70.22;95155.91;6272175;22;20167;-86
2023/08/31 10:01:14;;;;;;;1.90;1.70;;;;;;;17.76;70.74;95170.28;6272527;22;20172;-88
2023/08/31 10:03:41;;;;;;;1.70;1.50;;;;;;;17.72;70.89;95176.94;6272792;22;20215;-86
2023/08/31 10:06:09;;;;;;;1.70;1.55;;;;;;;17.65;70.17;95146.88;6272071;22;20176;-86
2023/08/31 10:08:36;;;;;;;1.73;1.60;;;;;;;17.71;70.72;95167.56;6272911;22;20172;-86
2023/08/31 10:11:06;;;;;;;1.88;1.70;;;;;;;17.71;70.11;95158.94;6273616;22;20173;-87
2023/08/31 10:13:35;;;;;;;2.10;1.77;;;;;;;17.70;69.72;95137.38;6273593;22;20179;-86
2023/08/31 10:16:05;;;;;;;1.50;1.40;;;;;;;17.72;69.61;95129.28;6274750;22;20179;-86
2023/08/31 10:18:33;;;;;;;2.70;1.65;;;;;;;17.98;67.48;95079.25;6273381;22;20182;-85
2023/08/31 10:20:59;;;;;;;2.78;1.70;;;;;;;18.21;68.09;95086.16;6273586;22;20838;-87
2023/08/31 10:23:25;;;;;;;2.60;1.73;;;;;;;18.32;67.92;95084.47;6274360;22;20250;-86
2023/08/31 10:26:04;;;;;;;1.63;1.50;;;;;;;18.36;67.53;95060.31;6274005;22;20183;-86
2023/08/31 10:28:39;;;;;;;2.08;1.70;;;;;;;18.24;66.52;95023.16;6273994;22;20230;-86
2023/08/31 10:31:08;;;;;;;2.33;1.70;;;;;;;18.23;66.46;95037.19;6275045;22;20160;-86
2023/08/31 10:33:36;;;;;;;3.25;2.20;;;;;;;18.07;67.51;95064.84;6275730;22;20176;-86
2023/08/31 10:36:03;;;;;;;2.92;2.10;;;;;;;18.04;67.54;95074.94;6274352;22;20172;-85
2023/08/31 10:38:31;;;;;;;2.95;2.00;;;;;;;18.01;68.10;95089.22;6273163;22;20259;-85
2023/08/31 10:41:19;;;;;;;1.60;1.50;;;;;;;17.94;67.93;95078.13;6271348;22;20176;-85
2023/08/31 10:43:51;;;;;;;1.90;1.70;;;;;;;18.05;68.77;95110.38;6272041;22;20751;-86
2023/08/31 10:46:30;;;;;;;2.17;1.65;;;;;;;18.18;68.31;95104.88;6271983;22;20239;-86
2023/08/31 10:48:58;;;;;;;1.90;1.65;;;;;;;18.15;68.56;95100.91;6271953;22;20191;-84
2023/08/31 10:51:28;;;;;;;1.77;1.63;;;;;;;18.09;69.15;95129.72;6270902;22;20737;-85
2023/08/31 10:54:06;;;;;;;2.60;1.73;;;;;;;18.14;69.29;95138.41;6270648;22;20226;-84
2023/08/31 10:56:32;;;;;;;1.77;1.63;;;;;;;18.31;68.82;95128.00;6272193;22;20688;-85
2023/08/31 10:59:00;;;;;;;3.10;1.65;;;;;;;18.30;70.23;95181.94;6271180;22;20203;-86
2023/08/31 11:01:53;;;;;;;3.20;2.60;;;;;;;18.20;69.91;95158.31;6271897;22;20172;-84
2023/08/31 11:04:20;;;;;;;3.78;2.30;;;;;;;18.22;70.44;95179.75;6273057;22;20245;-85
2023/08/31 11:06:47;;;;;;;3.05;2.15;;;;;;;18.22;70.21;95177.13;6272983;22;20180;-87
2023/08/31 11:09:19;;;;;;;4.18;2.38;;;;;;;18.24;71.01;95213.38;6272794;22;20200;-86
2023/08/31 11:11:46;;;;;;;3.35;2.58;;;;;;;18.14;70.75;95198.34;6273028;22;20163;-86
2023/08/31 11:14:12;;;;;;;2.35;1.92;;;;;;;18.11;70.53;95190.97;6273130;22;20168;-85
2023/08/31 11:16:42;;;;;;;3.83;2.15;;;;;;;18.03;70.27;95157.50;6272367;22;20616;-85
2023/08/31 11:19:10;;;;;;;3.85;2.17;;;;;;;18.03;70.93;95193.19;6271929;22;20808;-86
2023/08/31 11:21:37;;;;;;;3.35;2.22;;;;;;;17.99;71.40;95202.47;6272553;22;20183;-86
2023/08/31 11:24:04;;;;;;;3.83;2.55;;;;;;;18.01;71.04;95190.81;6272558;22;20242;-85
2023/08/31 11:26:32;;;;;;;4.35;2.42;;;;;;;18.01;71.28;95206.44;6271402;22;20840;-86
2023/08/31 11:28:58;;;;;;;2.33;1.88;;;;;;;18.07;69.46;95152.63;6272647;22;20197;-86
2023/08/31 11:31:25;;;;;;;2.75;2.00;;;;;;;18.37;69.04;95149.75;6272483;22;20179;-84
2023/08/31 11:33:52;;;;;;;3.78;2.20;;;;;;;18.48;67.35;95078.47;6272156;22;20176;-85
2023/08/31 11:36:19;;;;;;;14.15;11.95;;;;;;;18.47;65.51;95025.53;6272335;22;20176;-84